Tuesday, March 31, 2015, 9:04 PM EDT

KJYO, Leesburg / Godfrey

Location: Leesburg, VA, United States Lat: 39.083
Local Time: 9:04 PM EDT ( 1:04 GMT) Lon: -77.567
Time Zone: US/Eastern Elev: 390 ft

Show me the last for .
Show Decoded

2015-03-31 20:35 METAR KJYO 010035Z AUTO 35008KT 10SM SCT060 SCT080 BKN120 10/06 A2979 RMK AO2 =
2015-03-31 20:15 METAR KJYO 010015Z AUTO 35008KT 10SM SCT075 SCT100 BKN120 11/07 A2977 RMK AO2 =
2015-03-31 19:55 METAR KJYO 312355Z AUTO 01010G21KT 10SM SCT065 BKN085 OVC110 11/07 A2974 RMK AO2
                 =
2015-03-31 19:35 METAR KJYO 312335Z AUTO 35012G17KT 10SM -RA BKN065 OVC085 12/07 A2974 RMK AO2 =
2015-03-31 19:15 METAR KJYO 312315Z AUTO 35006KT 10SM -RA BKN065 OVC075 12/07 A2971 RMK AO2 LTG
                 DSNT E =
2015-03-31 18:55 METAR KJYO 312255Z AUTO 36014G22KT 10SM TSRA SCT055 BKN075 OVC095 12/07 A2970
                 RMK AO2 =
2015-03-31 18:35 METAR KJYO 312235Z AUTO 36020G28KT 10SM TS SCT075 BKN095 15/05 A2968 RMK AO2 =
2015-03-31 18:15 METAR KJYO 312215Z AUTO 32017G24KT 10SM SCT095 18/04 A2963 RMK AO2 =
2015-03-31 17:55 METAR KJYO 312155Z AUTO 28015G18KT 10SM SCT120 18/03 A2962 RMK AO2 =
2015-03-31 17:35 METAR KJYO 312135Z AUTO 30015G26KT 10SM SCT065 SCT095 BKN120 19/03 A2960 RMK AO2
                 =
2015-03-31 17:15 METAR KJYO 312115Z AUTO 30005KT 10SM SCT065 OVC095 17/03 A2959 RMK AO2 =
2015-03-31 16:55 METAR KJYO 312055Z AUTO 00000KT 10SM SCT070 OVC095 17/02 A2958 RMK AO2 =
2015-03-31 16:35 METAR KJYO 312035Z AUTO 00000KT 10SM OVC095 17/02 A2957 RMK AO2 =
2015-03-31 16:15 METAR KJYO 312015Z AUTO 00000KT 10SM SCT070 OVC095 18/02 A2956 RMK AO2 =
2015-03-31 15:55 METAR KJYO 311955Z AUTO 24009KT 10SM -RA SCT075 OVC095 18/02 A2957 RMK AO2 =
2015-03-31 15:35 METAR KJYO 311935Z AUTO 18017G20KT 10SM SCT060 BKN070 OVC095 18/01 A2957 RMK AO2
                 =
2015-03-31 15:15 METAR KJYO 311915Z AUTO 18012G22KT 10SM -RA SCT060 BKN070 OVC080 18/02 A2958 RMK
                 AO2 =
2015-03-31 15:00 METAR KJYO 311900Z AUTO 19013G17KT 10SM SCT060 SCT070 OVC090 18/01 A2959 RMK AO2
                 =
2015-03-31 14:35 METAR KJYO 311835Z AUTO 21014G23KT 10SM OVC100 20/01 A2961 RMK AO2 =
2015-03-31 14:15 METAR KJYO 311815Z AUTO 19018G24KT 10SM BKN100 20/01 A2963 RMK AO2 =
2015-03-31 13:55 METAR KJYO 311755Z AUTO 20019G28KT 10SM CLR 20/01 A2963 RMK AO2 =
2015-03-31 13:35 METAR KJYO 311735Z AUTO 21019G28KT 10SM CLR 20/01 A2965 RMK AO2 =
2015-03-31 13:15 METAR KJYO 311715Z AUTO 20016G30KT 10SM CLR 19/01 A2968 RMK AO2 =
2015-03-31 12:55 METAR KJYO 311655Z AUTO 20016G31KT 10SM CLR 19/01 A2971 RMK AO2 =
2015-03-31 12:35 METAR KJYO 311635Z AUTO 20019G26KT 10SM CLR 18/01 A2973 RMK AO2 =
2015-03-31 12:15 METAR KJYO 311615Z AUTO 20016G26KT 10SM CLR 18/01 A2976 RMK AO2 =
2015-03-31 11:55 METAR KJYO 311555Z AUTO 20018G24KT 10SM CLR 17/01 A2977 RMK AO2 =
2015-03-31 11:35 METAR KJYO 311535Z AUTO 20013G23KT 10SM CLR 17/01 A2979 RMK AO2 =
2015-03-31 11:15 METAR KJYO 311515Z AUTO 20020G26KT 10SM CLR 17/01 A2980 RMK AO2 =
2015-03-31 10:55 METAR KJYO 311455Z AUTO 20017G20KT 10SM CLR 16/01 A2983 RMK AO2 =
2015-03-31 10:35 METAR KJYO 311435Z AUTO 19014G17KT 10SM CLR 15/00 A2984 RMK AO2 =
2015-03-31 10:15 METAR KJYO 311415Z AUTO 19012G18KT 10SM CLR 15/00 A2985 RMK AO2 =
2015-03-31 09:55 METAR KJYO 311355Z AUTO 20009KT 10SM CLR 13/00 A2987 RMK AO2 =
2015-03-31 09:35 METAR KJYO 311335Z AUTO 19007KT 10SM CLR 12/00 A2989 RMK AO2 =
2015-03-31 09:15 METAR KJYO 311315Z AUTO 18004KT 10SM CLR 10/00 A2990 RMK AO2 =
2015-03-31 08:35 METAR KJYO 311235Z AUTO 18003KT 10SM CLR 07/00 A2993 RMK AO2 =
2015-03-31 08:15 METAR KJYO 311215Z AUTO 00000KT 10SM CLR 06/00 A2993 RMK AO2 =
2015-03-31 07:55 METAR KJYO 311155Z AUTO 00000KT 10SM CLR 05/M01 A2993 RMK AO2 =
2015-03-31 07:15 METAR KJYO 311115Z AUTO 22003KT 10SM CLR 03/M01 A2993 RMK AO2 =
2015-03-31 06:55 METAR KJYO 311055Z AUTO 20007KT 10SM SCT090 03/M01 A2993 RMK AO2 =
2015-03-31 06:35 METAR KJYO 311035Z AUTO 21005KT 10SM SCT070 SCT090 03/M01 A2992 RMK AO2 =
2015-03-31 06:15 METAR KJYO 311015Z AUTO 21005KT 10SM SCT070 BKN090 03/M01 A2993 RMK AO2 =
2015-03-31 05:55 METAR KJYO 310955Z AUTO 20005KT 10SM SCT070 04/M01 A2992 RMK AO2 =
2015-03-31 05:35 METAR KJYO 310935Z AUTO 20006KT 10SM SCT070 04/M01 A2992 RMK AO2 =
2015-03-31 05:15 METAR KJYO 310915Z AUTO 22004KT 10SM CLR 04/M01 A2992 RMK AO2 =
2015-03-31 04:55 METAR KJYO 310855Z AUTO 20006KT 10SM CLR 05/M01 A2992 RMK AO2 =
2015-03-31 04:35 METAR KJYO 310835Z AUTO 20005KT 10SM CLR 06/M01 A2992 RMK AO2 =
2015-03-31 04:15 METAR KJYO 310815Z AUTO 21006KT 10SM CLR 06/M02 A2992 RMK AO2 =
2015-03-31 03:35 METAR KJYO 310735Z AUTO 21005KT 10SM CLR 05/M02 A2993 RMK AO2 =
2015-03-31 03:15 METAR KJYO 310715Z AUTO 20006KT 10SM CLR 06/M01 A2993 RMK AO2 =
2015-03-31 02:55 METAR KJYO 310655Z AUTO 20004KT 10SM CLR 06/M02 A2994 RMK AO2 =
2015-03-31 02:35 METAR KJYO 310635Z AUTO 20005KT 10SM CLR 07/M02 A2994 RMK AO2 =
2015-03-31 02:15 METAR KJYO 310615Z AUTO 24003KT 10SM CLR 08/M02 A2994 RMK AO2 =
2015-03-31 01:55 METAR KJYO 310555Z AUTO 27003KT 10SM CLR 08/M02 A2994 RMK AO2 =
2015-03-31 01:35 METAR KJYO 310535Z AUTO 26005KT 10SM CLR 09/M02 A2995 RMK AO2 =
2015-03-31 01:15 METAR KJYO 310515Z AUTO 26005KT 10SM CLR 10/M02 A2995 RMK AO2 =
2015-03-31 00:55 METAR KJYO 310455Z AUTO 27006KT 10SM CLR 08/M02 A2995 RMK AO2 =
2015-03-31 00:35 METAR KJYO 310435Z AUTO 28007KT 10SM CLR 05/M02 A2995 RMK AO2 =
2015-03-31 00:15 METAR KJYO 310415Z AUTO 26004KT 10SM CLR 06/M02 A2996 RMK AO2 =
2015-03-30 23:55 METAR KJYO 310355Z AUTO 21005KT 10SM CLR 08/M03 A2996 RMK AO2 =
2015-03-30 23:35 METAR KJYO 310335Z AUTO 18004KT 10SM CLR 09/M03 A2996 RMK AO2 =
2015-03-30 22:55 METAR KJYO 310255Z AUTO 30007KT 10SM CLR 10/M03 A2996 RMK AO2 =
2015-03-30 22:35 METAR KJYO 310235Z AUTO 29007KT 10SM CLR 09/M03 A2996 RMK AO2 =
2015-03-30 22:15 METAR KJYO 310215Z AUTO 29007KT 10SM CLR 08/M03 A2997 RMK AO2 =
2015-03-30 21:55 METAR KJYO 310155Z AUTO 29006KT 10SM CLR 08/M03 A2997 RMK AO2 =
2015-03-30 21:35 METAR KJYO 310135Z AUTO 28006KT 10SM CLR 10/M03 A2997 RMK AO2 =
2015-03-30 21:15 METAR KJYO 310115Z AUTO 30005KT 10SM CLR 10/M03 A2997 RMK AO2 =

Support USWX by starting your Amazon purchase here.